Insula Oya 2 — FUKI — position and weather

sailwx.info

Track history (hours):
 
Tides and Currents Weather Stations Pressure Air Temp Water Temp Dewpoint Dewpoint Depression Visibility Wind Speed Wind Dir Waves Ship Positions

Insula Oya 2

Last reported at 2016-Feb-11 06:28 UTC. Time now 2016-Feb-11 15:07 UTC.
Position N 46°53' W 002°11'.

Length 50 m; draft 2.5 m.

Type: Passenger vessel. MMSI: 227004900.

Date/timePositionNaut miles runAvg speedWind from/ knotsBaromVisibWave heightAir tempDewpointWater temp
2016-Feb-11 06:28N 46°53' W 002°11'2 1.8
2016-Feb-11 05:26N 46°54' W 002°08'0 0.0
2016-Feb-10 15:25N 46°54' W 002°08'1011.7
2016-Feb-10 14:33N 46°46' W 002°18'2 0.2
2016-Feb-10 06:30N 46°47' W 002°16'9 9.1
2016-Feb-10 05:33N 46°54' W 002°08'0 0.0
2016-Feb-09 16:33N 46°54' W 002°08'0 0.0
2016-Feb-09 15:33N 46°54' W 002°08'0 0.0
2016-Feb-08 15:14N 46°54' W 002°08'2 0.0
2016-Feb-06 15:04N 46°54' W 002°11'2 1.7
2016-Feb-06 14:05N 46°54' W 002°08'0 0.0
2016-Feb-06 08:16N 46°54' W 002°08'0 0.0
2016-Feb-06 07:27N 46°54' W 002°08'0 0.0
2016-Feb-06 06:32N 46°54' W 002°08'0 0.0
2016-Feb-06 02:32N 46°54' W 002°08'0 0.0
2016-Feb-06 01:33N 46°54' W 002°08'0 0.0
2016-Feb-06 00:32N 46°54' W 002°08'0 0.0
2016-Feb-05 23:25N 46°54' W 002°08'0 0.0
2016-Feb-05 22:32N 46°54' W 002°08'0 0.0
2016-Feb-05 21:30N 46°54' W 002°08'0 0.0
2016-Feb-05 20:33N 46°54' W 002°08'0 0.0
2016-Feb-05 19:33N 46°54' W 002°08'0 0.0
2016-Feb-05 18:33N 46°54' W 002°08'0 0.0
2016-Feb-05 17:33N 46°54' W 002°08'0 0.0
2016-Feb-05 16:33N 46°54' W 002°08'7 6.6
2016-Feb-05 15:33N 46°49' W 002°16'0 0.1
2016-Feb-05 12:06N 46°49' W 002°16'611.3
2016-Feb-05 11:34N 46°54' W 002°09'1 0.5
2016-Feb-05 10:33N 46°54' W 002°08'0 0.0
2016-Feb-05 09:34N 46°54' W 002°08'0 0.0
2016-Feb-05 08:33N 46°54' W 002°08'0 0.0
2016-Feb-05 07:34N 46°54' W 002°08'0 0.0
2016-Feb-05 06:34N 46°54' W 002°08'0 0.0
2016-Feb-05 05:33N 46°54' W 002°08'0 0.0
2016-Feb-05 04:34N 46°54' W 002°08'0 0.0
2016-Feb-05 03:33N 46°54' W 002°08'0 0.0
2016-Feb-05 02:34N 46°54' W 002°08'0 0.0
2016-Feb-05 01:34N 46°54' W 002°08'0 0.0
2016-Feb-05 00:34N 46°54' W 002°08'0 0.0
2016-Feb-04 23:33N 46°54' W 002°08'0 0.0
2016-Feb-04 22:33N 46°54' W 002°08'0 0.0
2016-Feb-04 21:33N 46°54' W 002°08'0 0.0
2016-Feb-04 20:33N 46°54' W 002°08'0 0.0
2016-Feb-04 19:34N 46°54' W 002°08'0 0.0
2016-Feb-04 18:33N 46°54' W 002°08'0 0.0
2016-Feb-04 17:33N 46°54' W 002°08'0 0.0
2016-Feb-04 16:33N 46°54' W 002°08'0 0.0
2016-Feb-04 15:33N 46°54' W 002°08'8 7.5
2016-Feb-04 14:26N 46°47' W 002°17'0 0.1
2016-Feb-04 11:18N 46°48' W 002°16'810.8
2016-Feb-04 10:34N 46°54' W 002°08'0 0.0
2016-Feb-04 09:34N 46°54' W 002°08'0 0.0
2016-Feb-04 08:33N 46°54' W 002°08'0 0.0
2016-Feb-04 07:33N 46°54' W 002°08'0 0.0
2016-Feb-04 06:33N 46°54' W 002°08'0 0.0
2016-Feb-04 05:33N 46°54' W 002°08'0 0.0
2016-Feb-04 04:33N 46°54' W 002°08'0 0.0
2016-Feb-04 03:34N 46°54' W 002°08'0 0.0
2016-Feb-04 02:33N 46°54' W 002°08'0 0.0
2016-Feb-04 01:33N 46°54' W 002°08'0 0.0
2016-Feb-04 00:34N 46°54' W 002°08'0 0.0
2016-Feb-03 23:34N 46°54' W 002°08'0 0.0
2016-Feb-03 22:34N 46°54' W 002°08'0 0.0
2016-Feb-03 21:34N 46°54' W 002°08'0 0.0
2016-Feb-03 20:21N 46°54' W 002°08'0 0.0
2016-Feb-03 18:29N 46°54' W 002°08'0 0.0
2016-Feb-03 17:34N 46°54' W 002°08'0 0.0
2016-Feb-03 16:33N 46°54' W 002°08'0 0.0
2016-Feb-03 15:34N 46°54' W 002°08'0 0.0
2016-Feb-03 14:34N 46°54' W 002°08'  
Track history (hours):
 
Tides and Currents Weather Stations Pressure Air Temp Water Temp Dewpoint Dewpoint Depression Visibility Wind Speed Wind Dir Waves Ship Positions

Insula Oya 2

Last reported at 2016-Feb-11 06:28 UTC. Time now 2016-Feb-11 15:07 UTC.
Position N 46°53' W 002°11'.

Length 50 m; draft 2.5 m.

Type: Passenger vessel. MMSI: 227004900.

Date/timePositionNaut miles runAvg speedWind from/ knotsBaromVisibWave heightAir tempDewpointWater temp
2016-Feb-11 06:28N 46°53' W 002°11'2 1.8
2016-Feb-11 05:26N 46°54' W 002°08'0 0.0
2016-Feb-10 15:25N 46°54' W 002°08'1011.7
2016-Feb-10 14:33N 46°46' W 002°18'2 0.2
2016-Feb-10 06:30N 46°47' W 002°16'9 9.1
2016-Feb-10 05:33N 46°54' W 002°08'0 0.0
2016-Feb-09 16:33N 46°54' W 002°08'0 0.0
2016-Feb-09 15:33N 46°54' W 002°08'0 0.0
2016-Feb-08 15:14N 46°54' W 002°08'2 0.0
2016-Feb-06 15:04N 46°54' W 002°11'2 1.7
2016-Feb-06 14:05N 46°54' W 002°08'0 0.0
2016-Feb-06 08:16N 46°54' W 002°08'0 0.0
2016-Feb-06 07:27N 46°54' W 002°08'0 0.0
2016-Feb-06 06:32N 46°54' W 002°08'0 0.0
2016-Feb-06 02:32N 46°54' W 002°08'0 0.0
2016-Feb-06 01:33N 46°54' W 002°08'0 0.0
2016-Feb-06 00:32N 46°54' W 002°08'0 0.0
2016-Feb-05 23:25N 46°54' W 002°08'0 0.0
2016-Feb-05 22:32N 46°54' W 002°08'0 0.0
2016-Feb-05 21:30N 46°54' W 002°08'0 0.0
2016-Feb-05 20:33N 46°54' W 002°08'0 0.0
2016-Feb-05 19:33N 46°54' W 002°08'0 0.0
2016-Feb-05 18:33N 46°54' W 002°08'0 0.0
2016-Feb-05 17:33N 46°54' W 002°08'0 0.0
2016-Feb-05 16:33N 46°54' W 002°08'7 6.6
2016-Feb-05 15:33N 46°49' W 002°16'0 0.1
2016-Feb-05 12:06N 46°49' W 002°16'611.3
2016-Feb-05 11:34N 46°54' W 002°09'1 0.5
2016-Feb-05 10:33N 46°54' W 002°08'0 0.0
2016-Feb-05 09:34N 46°54' W 002°08'0 0.0
2016-Feb-05 08:33N 46°54' W 002°08'0 0.0
2016-Feb-05 07:34N 46°54' W 002°08'0 0.0
2016-Feb-05 06:34N 46°54' W 002°08'0 0.0
2016-Feb-05 05:33N 46°54' W 002°08'0 0.0
2016-Feb-05 04:34N 46°54' W 002°08'0 0.0
2016-Feb-05 03:33N 46°54' W 002°08'0 0.0
2016-Feb-05 02:34N 46°54' W 002°08'0 0.0
2016-Feb-05 01:34N 46°54' W 002°08'0 0.0
2016-Feb-05 00:34N 46°54' W 002°08'0 0.0
2016-Feb-04 23:33N 46°54' W 002°08'0 0.0
2016-Feb-04 22:33N 46°54' W 002°08'0 0.0
2016-Feb-04 21:33N 46°54' W 002°08'0 0.0
2016-Feb-04 20:33N 46°54' W 002°08'0 0.0
2016-Feb-04 19:34N 46°54' W 002°08'0 0.0
2016-Feb-04 18:33N 46°54' W 002°08'0 0.0
2016-Feb-04 17:33N 46°54' W 002°08'0 0.0
2016-Feb-04 16:33N 46°54' W 002°08'0 0.0
2016-Feb-04 15:33N 46°54' W 002°08'8 7.5
2016-Feb-04 14:26N 46°47' W 002°17'0 0.1
2016-Feb-04 11:18N 46°48' W 002°16'810.8
2016-Feb-04 10:34N 46°54' W 002°08'0 0.0
2016-Feb-04 09:34N 46°54' W 002°08'0 0.0
2016-Feb-04 08:33N 46°54' W 002°08'0 0.0
2016-Feb-04 07:33N 46°54' W 002°08'0 0.0
2016-Feb-04 06:33N 46°54' W 002°08'0 0.0
2016-Feb-04 05:33N 46°54' W 002°08'0 0.0
2016-Feb-04 04:33N 46°54' W 002°08'0 0.0
2016-Feb-04 03:34N 46°54' W 002°08'0 0.0
2016-Feb-04 02:33N 46°54' W 002°08'0 0.0
2016-Feb-04 01:33N 46°54' W 002°08'0 0.0
2016-Feb-04 00:34N 46°54' W 002°08'0 0.0
2016-Feb-03 23:34N 46°54' W 002°08'0 0.0
2016-Feb-03 22:34N 46°54' W 002°08'0 0.0
2016-Feb-03 21:34N 46°54' W 002°08'0 0.0
2016-Feb-03 20:21N 46°54' W 002°08'0 0.0
2016-Feb-03 18:29N 46°54' W 002°08'0 0.0
2016-Feb-03 17:34N 46°54' W 002°08'0 0.0
2016-Feb-03 16:33N 46°54' W 002°08'0 0.0
2016-Feb-03 15:34N 46°54' W 002°08'0 0.0
2016-Feb-03 14:34N 46°54' W 002°08'  

Dump ship's entire track history